Terminal Aerodrome Forecast
Issued by NWS Charleston, SC

Home | Current Version | Previous Version | Text Only | Print | Product List | Glossary On
Versions: 1 2 3 4 5 6 7 8 9 10 11 12 13 14 15 16 17 18
000
FTUS42 KCHS 270528
TAFSAV
TAF
KSAV 270528Z 2706/2806 VRB03KT P6SM SCT020 BKN035
      TEMPO 2706/2708 5SM -SHRA SCT009 BKN020
     FM271030 35003KT 4SM BR BKN006
     FM271330 VRB05KT P6SM BKN040
     FM272100 19003KT P6SM SCT250=

USA.gov is the U.S. government's official web portal to all federal, state and local government web resources and services.